TimeEST,TemperatureF,Dew PointF,Humidity,Sea Level PressureIn,VisibilityMPH,Wind Direction,Wind SpeedMPH,Gust SpeedMPH,PrecipitationIn,Events,Conditions,WindDirDegrees,DateUTC
12:15 AM,37.4,35.6,93,30.09,4.0,Calm,Calm,-,N/A,,Clear,0,2013-02-15 05:15:00
12:35 AM,37.4,35.6,93,30.08,1.0,Calm,Calm,-,N/A,,Mostly Cloudy,0,2013-02-15 05:35:00
12:55 AM,35.6,35.6,100,30.08,3.0,Calm,Calm,-,N/A,,Scattered Clouds,0,2013-02-15 05:55:00
1:15 AM,35.6,35.6,100,30.08,4.0,Calm,Calm,-,N/A,,Clear,0,2013-02-15 06:15:00
1:35 AM,35.6,35.6,100,30.08,4.0,Calm,Calm,-,N/A,,Clear,0,2013-02-15 06:35:00
1:55 AM,35.6,35.6,100,30.08,3.0,Calm,Calm,-,N/A,,Clear,0,2013-02-15 06:55:00
2:15 AM,35.6,35.6,100,30.08,4.0,Calm,Calm,-,N/A,,Clear,0,2013-02-15 07:15:00
2:35 AM,35.6,35.6,100,30.07,3.0,NNW,3.5,-,N/A,,Clear,330,2013-02-15 07:35:00
2:55 AM,35.6,33.8,93,30.07,5.0,Calm,Calm,-,N/A,,Clear,0,2013-02-15 07:55:00
3:15 AM,35.6,35.6,100,30.08,5.0,Calm,Calm,-,N/A,,Clear,0,2013-02-15 08:15:00
3:35 AM,35.6,35.6,100,30.09,4.0,Calm,Calm,-,N/A,,Clear,0,2013-02-15 08:35:00
3:55 AM,33.8,33.8,100,30.09,5.0,Calm,Calm,-,N/A,,Clear,0,2013-02-15 08:55:00
4:15 AM,33.8,33.8,100,30.10,5.0,Calm,Calm,-,N/A,,Clear,0,2013-02-15 09:15:00
4:35 AM,33.8,33.8,100,30.10,4.0,Calm,Calm,-,N/A,,Clear,0,2013-02-15 09:35:00
4:55 AM,33.8,33.8,100,30.10,5.0,Calm,Calm,-,N/A,,Clear,0,2013-02-15 09:55:00
5:35 AM,33.8,33.8,100,30.09,2.5,Calm,Calm,-,N/A,,Clear,0,2013-02-15 10:35:00
5:55 AM,33.8,33.8,100,30.10,5.0,Calm,Calm,-,N/A,,Clear,0,2013-02-15 10:55:00
6:15 AM,33.8,32.0,93,30.10,7.0,Calm,Calm,-,N/A,,Clear,0,2013-02-15 11:15:00
6:35 AM,33.8,32.0,93,30.10,7.0,Calm,Calm,-,N/A,,Clear,0,2013-02-15 11:35:00
6:55 AM,33.8,33.8,100,30.11,5.0,Calm,Calm,-,N/A,,Clear,0,2013-02-15 11:55:00
7:15 AM,33.8,33.8,100,30.12,2.5,Calm,Calm,-,N/A,,Clear,0,2013-02-15 12:15:00
7:35 AM,33.8,33.8,100,30.12,4.0,Calm,Calm,-,N/A,,Clear,0,2013-02-15 12:35:00
7:55 AM,35.6,35.6,100,30.12,4.0,Calm,Calm,-,N/A,,Clear,0,2013-02-15 12:55:00
8:15 AM,37.4,37.4,100,30.14,3.0,Calm,Calm,-,N/A,,Clear,0,2013-02-15 13:15:00
8:35 AM,41.0,41.0,100,30.14,5.0,NNW,3.5,-,N/A,,Clear,330,2013-02-15 13:35:00
8:55 AM,42.8,42.8,100,30.14,7.0,NNW,6.9,-,N/A,,Clear,330,2013-02-15 13:55:00
9:15 AM,44.6,42.8,93,30.14,7.0,North,5.8,-,N/A,,Clear,350,2013-02-15 14:15:00
9:35 AM,46.4,42.8,87,30.15,10.0,NNW,4.6,-,N/A,,Clear,340,2013-02-15 14:35:00
9:55 AM,50.0,42.8,76,30.14,10.0,North,3.5,-,N/A,,Clear,350,2013-02-15 14:55:00
10:15 AM,50.0,42.8,76,30.14,10.0,Calm,Calm,-,N/A,,Clear,0,2013-02-15 15:15:00
10:35 AM,51.8,42.8,71,30.14,10.0,North,3.5,-,N/A,,Clear,360,2013-02-15 15:35:00
10:55 AM,53.6,42.8,67,30.14,7.0,NNE,5.8,-,N/A,,Clear,30,2013-02-15 15:55:00
11:35 AM,55.4,41.0,58,30.14,10.0,North,5.8,-,N/A,,Clear,360,2013-02-15 16:35:00
11:55 AM,59.0,39.2,48,30.12,10.0,ENE,6.9,-,N/A,,Clear,60,2013-02-15 16:55:00
12:15 PM,59.0,37.4,45,30.12,10.0,NE,6.9,-,N/A,,Clear,40,2013-02-15 17:15:00
12:35 PM,59.0,37.4,45,30.11,10.0,ENE,5.8,-,N/A,,Clear,60,2013-02-15 17:35:00
12:55 PM,59.0,37.4,45,30.10,10.0,East,3.5,-,N/A,,Clear,100,2013-02-15 17:55:00
1:15 PM,60.8,35.6,39,30.09,10.0,Calm,Calm,-,N/A,,Clear,0,2013-02-15 18:15:00
1:55 PM,62.6,35.6,37,30.06,10.0,Calm,Calm,-,N/A,,Clear,0,2013-02-15 18:55:00
2:15 PM,62.6,37.4,39,30.05,10.0,North,5.8,-,N/A,,Clear,10,2013-02-15 19:15:00
2:35 PM,62.6,35.6,37,30.04,10.0,North,4.6,-,N/A,,Clear,350,2013-02-15 19:35:00
2:55 PM,62.6,35.6,37,30.03,10.0,Calm,Calm,-,N/A,,Clear,0,2013-02-15 19:55:00
3:15 PM,62.6,33.8,34,30.02,10.0,Calm,Calm,-,N/A,,Clear,0,2013-02-15 20:15:00
3:35 PM,62.6,33.8,34,30.02,10.0,Calm,Calm,-,N/A,,Clear,0,2013-02-15 20:35:00
3:55 PM,62.6,33.8,34,30.02,10.0,Calm,Calm,-,N/A,,Clear,0,2013-02-15 20:55:00
4:15 PM,62.6,33.8,34,30.02,10.0,Calm,Calm,-,N/A,,Clear,0,2013-02-15 21:15:00
4:35 PM,62.6,33.8,34,30.01,10.0,North,4.6,-,N/A,,Clear,10,2013-02-15 21:35:00
4:55 PM,62.6,33.8,34,30.01,10.0,North,3.5,-,N/A,,Clear,360,2013-02-15 21:55:00
5:15 PM,62.6,35.6,37,30.01,10.0,NNE,3.5,-,N/A,,Clear,20,2013-02-15 22:15:00
5:35 PM,60.8,37.4,42,30.01,7.0,NNW,4.6,-,N/A,,Clear,340,2013-02-15 22:35:00
5:55 PM,60.8,37.4,42,30.02,10.0,NNW,4.6,-,N/A,,Clear,340,2013-02-15 22:55:00
6:15 PM,57.2,39.2,51,30.02,10.0,Calm,Calm,-,N/A,,Clear,0,2013-02-15 23:15:00
6:35 PM,55.4,39.2,54,30.02,10.0,Calm,Calm,-,N/A,,Clear,0,2013-02-15 23:35:00
6:55 PM,53.6,39.2,58,30.02,10.0,WNW,3.5,-,N/A,,Clear,300,2013-02-15 23:55:00
7:15 PM,51.8,41.0,67,30.02,10.0,Calm,Calm,-,N/A,,Clear,0,2013-02-16 00:15:00
7:35 PM,51.8,41.0,67,30.02,10.0,Calm,Calm,-,N/A,,Clear,0,2013-02-16 00:35:00
7:55 PM,50.0,41.0,71,30.03,10.0,Calm,Calm,-,N/A,,Clear,0,2013-02-16 00:55:00
8:15 PM,48.2,41.0,76,30.03,10.0,Calm,Calm,-,N/A,,Clear,0,2013-02-16 01:15:00
8:35 PM,46.4,42.8,87,30.04,10.0,Calm,Calm,-,N/A,,Clear,0,2013-02-16 01:35:00
8:55 PM,46.4,41.0,81,30.04,10.0,Calm,Calm,-,N/A,,Clear,0,2013-02-16 01:55:00
9:15 PM,46.4,41.0,81,30.04,10.0,Calm,Calm,-,N/A,,Clear,0,2013-02-16 02:15:00
9:35 PM,46.4,41.0,81,30.04,10.0,Calm,Calm,-,N/A,,Clear,0,2013-02-16 02:35:00
9:55 PM,46.4,42.8,87,30.04,10.0,Calm,Calm,-,N/A,,Clear,0,2013-02-16 02:55:00
10:15 PM,44.6,42.8,93,30.04,10.0,Calm,Calm,-,N/A,,Clear,0,2013-02-16 03:15:00
10:35 PM,44.6,42.8,93,30.04,10.0,Calm,Calm,-,N/A,,Clear,0,2013-02-16 03:35:00
10:55 PM,44.6,41.0,87,30.04,10.0,Calm,Calm,-,N/A,,Clear,0,2013-02-16 03:55:00
11:15 PM,44.6,41.0,87,30.03,10.0,Calm,Calm,-,N/A,,Clear,0,2013-02-16 04:15:00
11:35 PM,42.8,41.0,93,30.03,10.0,Calm,Calm,-,N/A,,Clear,0,2013-02-16 04:35:00
11:55 PM,42.8,42.8,100,30.03,7.0,West,3.5,-,N/A,,Clear,260,2013-02-16 04:55:00